Nord Organiser — 3FOF6 — position and weather

sailwx.info

Track history (hours):
 
Tides and Currents Weather Stations Pressure Air Temp Water Temp Dewpoint Dewpoint Depression Visibility Wind Speed Wind Dir Waves Ship Positions

Nord Organiser

Last reported at 2018-Jan-05 14:32 UTC. Time now 2018-Jan-18 10:21 UTC.
Position N 34°02' E 139°13'.
Warning: this ship's position is 12 days out of date.

Length 182 m; draft 7 m.

Type: Tanker. MMSI: 370686000.

Date/timePositionNaut miles runAvg speedWind from/ knotsBaromVisibWave heightAir tempDewpointWater temp
2018-Jan-05 14:32N 34°02' E 139°13'511.0
2018-Jan-05 14:04N 34°06' E 139°17'211.6
2018-Jan-05 13:53N 34°07' E 139°19'1311.5
2018-Jan-05 12:48N 34°16' E 139°30'610.4
2018-Jan-05 12:13N 34°20' E 139°36'3 9.4
2018-Jan-05 11:55N 34°22' E 139°38'2 1.5
2018-Jan-05 10:53N 34°23' E 139°38'1 2.2
2018-Jan-05 10:30N 34°23' E 139°37'1 1.9
2018-Jan-05 09:54N 34°23' E 139°36'1 0.6
2018-Jan-05 07:26N 34°23' E 139°34'0 0.6
2018-Jan-05 06:56N 34°23' E 139°34'0 0.5
2018-Jan-05 06:17N 34°23' E 139°34'0 0.7
2018-Jan-05 05:55N 34°24' E 139°34'1 0.9
2018-Jan-05 05:00N 34°24' E 139°34'1 3.0
2018-Jan-05 04:30N 34°23' E 139°36'5 1.0
2018-Jan-04 23:20N 34°24' E 139°42'1 2.8
2018-Jan-04 22:59N 34°24' E 139°41'3 6.2
2018-Jan-04 22:27N 34°25' E 139°37'2 5.4
2018-Jan-04 22:00N 34°26' E 139°34'0 0.9
2018-Jan-04 21:30N 34°26' E 139°34'1 1.8
2018-Jan-04 20:58N 34°26' E 139°36'1 1.8
2018-Jan-04 20:29N 34°26' E 139°37'6 6.5
2018-Jan-04 19:32N 34°28' E 139°43'0 8.1
2018-Jan-04 19:31N 34°29' E 139°44'5 9.5
2018-Jan-04 18:59N 34°31' E 139°49'3 6.9
2018-Jan-04 18:30N 34°32' E 139°53'0 0.5
2018-Jan-04 17:36N 34°32' E 139°52'0 0.6
2018-Jan-04 17:30N 34°32' E 139°52'0 0.7
2018-Jan-04 17:00N 34°32' E 139°52'0 0.8
2018-Jan-04 16:31N 34°32' E 139°51'0 0.9
2018-Jan-04 16:01N 34°31' E 139°51'0 0.5
2018-Jan-04 15:28N 34°31' E 139°51'0 0.4
2018-Jan-04 15:01N 34°31' E 139°50'0 0.4
2018-Jan-04 14:14N 34°31' E 139°51'0 0.5
2018-Jan-04 13:41N 34°30' E 139°51'0 0.5
2018-Jan-04 13:31N 34°30' E 139°51'0 0.7
2018-Jan-04 12:52N 34°30' E 139°50'0 0.7
2018-Jan-04 12:30N 34°30' E 139°50'0 0.5
2018-Jan-04 12:00N 34°30' E 139°50'0 0.7
2018-Jan-04 11:30N 34°29' E 139°50'0 0.5
2018-Jan-04 11:00N 34°29' E 139°49'1 0.8
2018-Jan-04 10:21N 34°29' E 139°49'0 1.0
2018-Jan-04 09:58N 34°28' E 139°49'1 1.1
2018-Jan-04 09:15N 34°28' E 139°48'1 0.6
2018-Jan-04 07:45N 34°28' E 139°47'0 1.0
2018-Jan-04 07:15N 34°28' E 139°46'1 1.5
2018-Jan-04 06:33N 34°28' E 139°45'0 1.5
2018-Jan-04 06:29N 34°28' E 139°45'6 2.5
2018-Jan-04 04:11N 34°26' E 139°38'4 1.8
2018-Jan-04 01:50N 34°30' E 139°38'0 1.1
2018-Jan-04 01:29N 34°30' E 139°38'0 1.0
2018-Jan-04 00:59N 34°30' E 139°39'1 1.1
2018-Jan-04 00:30N 34°30' E 139°40'0 0.9
2018-Jan-04 00:00N 34°30' E 139°40'1 1.3
2018-Jan-03 23:28N 34°30' E 139°41'1 1.6
2018-Jan-03 22:57N 34°31' E 139°42'1 1.7
2018-Jan-03 22:29N 34°30' E 139°43'1 1.6
2018-Jan-03 21:57N 34°30' E 139°44'1 1.7
2018-Jan-03 21:31N 34°30' E 139°45'1 1.2
2018-Jan-03 21:01N 34°30' E 139°46'1 1.0
2018-Jan-03 20:30N 34°30' E 139°46'1 1.1
2018-Jan-03 19:54N 34°30' E 139°47'0 0.9
2018-Jan-03 19:30N 34°30' E 139°47'0 0.8
2018-Jan-03 19:01N 34°30' E 139°48'0 0.4
2018-Jan-03 18:23N 34°30' E 139°48'0 0.4
2018-Jan-03 18:00N 34°30' E 139°48'0 0.1
2018-Jan-03 17:30N 34°30' E 139°48'0 0.7
2018-Jan-03 17:01N 34°29' E 139°48'1 1.0
2018-Jan-03 16:30N 34°29' E 139°47'1 1.2
2018-Jan-03 16:00N 34°29' E 139°47'1 1.6
2018-Jan-03 15:29N 34°29' E 139°46'1 1.2
2018-Jan-03 14:38N 34°29' E 139°44'0 0.7
2018-Jan-03 14:30N 34°29' E 139°44'1 1.2
2018-Jan-03 13:53N 34°29' E 139°43'6 1.3
2018-Jan-03 09:39N 34°28' E 139°37'0 1.0
2018-Jan-03 09:30N 34°28' E 139°36'1 1.0
2018-Jan-03 08:59N 34°28' E 139°36'1 2.1
2018-Jan-03 08:30N 34°29' E 139°37'3 3.6
2018-Jan-03 07:46N 34°31' E 139°39'1 3.4
2018-Jan-03 07:26N 34°31' E 139°40'2 1.5
2018-Jan-03 06:17N 34°30' E 139°39'1 4.5
2018-Jan-03 05:59N 34°30' E 139°41'2 4.1
2018-Jan-03 05:30N 34°30' E 139°43'2 4.1
2018-Jan-03 04:56N 34°29' E 139°46'2 4.5
2018-Jan-03 04:29N 34°28' E 139°48'2 4.2
2018-Jan-03 04:00N 34°27' E 139°50'2 3.7
2018-Jan-03 03:29N 34°26' E 139°52'6 4.4
2018-Jan-03 02:01N 34°24' E 139°59'0 5.3
2018-Jan-03 02:00N 34°24' E 139°59'2 2.3
2018-Jan-03 00:57N 34°26' E 139°57'2 2.3
2018-Jan-03 00:13N 34°27' E 139°56'2 4.3
2018-Jan-02 23:49N 34°29' E 139°56'1 1.3
2018-Jan-02 22:48N 34°30' E 139°57'310.2
2018-Jan-02 22:30N 34°27' E 139°56'2 2.1
2018-Jan-02 21:39N 34°25' E 139°56'1 1.4
2018-Jan-02 21:07N 34°26' E 139°56'0 1.4
2018-Jan-02 20:48N 34°26' E 139°55'1 1.2
2018-Jan-02 20:08N 34°27' E 139°55'0 0.6
2018-Jan-02 20:00N 34°27' E 139°55'1 1.2
2018-Jan-02 19:26N 34°27' E 139°55'1 1.0
2018-Jan-02 18:54N 34°27' E 139°54'4 5.3
2018-Jan-02 18:04N 34°27' E 139°60'1 4.7
2018-Jan-02 17:49N 34°28' E 140°01'1 0.2
2018-Jan-02 10:32N 34°29' E 140°00'0 3.2
2018-Jan-02 10:27N 34°29' E 139°60'1 3.2
2018-Jan-02 10:00N 34°29' E 139°58'2 3.0
2018-Jan-02 09:30N 34°29' E 139°56'3 2.6
2018-Jan-02 08:29N 34°29' E 139°53'1 2.2
2018-Jan-02 08:00N 34°29' E 139°52'1 2.1
2018-Jan-02 07:29N 34°29' E 139°51'1 1.5
2018-Jan-02 07:01N 34°29' E 139°50'1 1.5
2018-Jan-02 06:30N 34°29' E 139°49'6 9.3
2018-Jan-02 05:49N 34°35' E 139°51'911.7
2018-Jan-02 05:02N 34°44' E 139°46'712.4
2018-Jan-02 04:30N 34°50' E 139°43'713.5
2018-Jan-02 04:01N 34°56' E 139°39'612.4
2018-Jan-02 03:31N 35°02' E 139°41'612.8
2018-Jan-02 03:01N 35°08' E 139°45'510.1
2018-Jan-02 02:30N 35°12' E 139°46'612.1
2018-Jan-02 02:00N 35°18' E 139°44'612.2
2018-Jan-02 01:30N 35°24' E 139°43'612.7
2018-Jan-02 01:00N 35°29' E 139°48'2 4.6
2018-Jan-02 00:29N 35°31' E 139°46'0 0.0
2018-Jan-01 23:59N 35°31' E 139°46'0 0.0
2018-Jan-01 23:29N 35°31' E 139°46'0 0.0
2018-Jan-01 22:59N 35°31' E 139°46'0 0.0
2018-Jan-01 22:29N 35°31' E 139°46'0 0.0
2017-Dec-31 05:08N 35°31' E 139°46'0 0.0
2017-Dec-31 04:59N 35°31' E 139°46'0 0.0
2017-Dec-31 04:29N 35°31' E 139°46'0 0.1
2017-Dec-31 04:00N 35°31' E 139°46'0 0.8
2017-Dec-31 03:30N 35°31' E 139°46'1 2.5
2017-Dec-31 03:00N 35°30' E 139°48'1 2.7
2017-Dec-31 02:30N 35°29' E 139°48'4 7.8
2017-Dec-31 02:00N 35°25' E 139°47'511.1
2017-Dec-31 01:31N 35°20' E 139°44'510.8
2017-Dec-31 01:00N 35°15' E 139°47'510.9
2017-Dec-31 00:31N 35°09' E 139°47'3 5.7
2017-Dec-31 00:00N 35°07' E 139°46'3 6.5
2017-Dec-30 23:31N 35°04' E 139°44'3 6.5
2017-Dec-30 23:01N 35°01' E 139°41'3 6.5
2017-Dec-30 22:30N 34°59' E 139°38'3 6.4
2017-Dec-30 22:00N 34°56' E 139°37'3 6.8
2017-Dec-30 21:30N 34°53' E 139°36'4 7.7
2017-Dec-30 21:00N 34°49' E 139°36'7 9.7
2017-Dec-30 20:15N 34°42' E 139°35'3 9.4
2017-Dec-30 19:54N 34°39' E 139°34'4 9.6
2017-Dec-30 19:29N 34°34' E 139°34'5 9.6
2017-Dec-30 18:58N 34°29' E 139°33'6 9.9
2017-Dec-30 18:21N 34°24' E 139°30'310.0
2017-Dec-30 18:00N 34°21' E 139°27'610.5
2017-Dec-30 17:25N 34°16' E 139°23'512.0
2017-Dec-30 16:59N 34°12' E 139°19'  
Track history (hours):
 
Tides and Currents Weather Stations Pressure Air Temp Water Temp Dewpoint Dewpoint Depression Visibility Wind Speed Wind Dir Waves Ship Positions

Nord Organiser

Last reported at 2018-Jan-05 14:32 UTC. Time now 2018-Jan-18 10:21 UTC.
Position N 34°02' E 139°13'.
Warning: this ship's position is 12 days out of date.

Length 182 m; draft 7 m.

Type: Tanker. MMSI: 370686000.

Date/timePositionNaut miles runAvg speedWind from/ knotsBaromVisibWave heightAir tempDewpointWater temp
2018-Jan-05 14:32N 34°02' E 139°13'511.0
2018-Jan-05 14:04N 34°06' E 139°17'211.6
2018-Jan-05 13:53N 34°07' E 139°19'1311.5
2018-Jan-05 12:48N 34°16' E 139°30'610.4
2018-Jan-05 12:13N 34°20' E 139°36'3 9.4
2018-Jan-05 11:55N 34°22' E 139°38'2 1.5
2018-Jan-05 10:53N 34°23' E 139°38'1 2.2
2018-Jan-05 10:30N 34°23' E 139°37'1 1.9
2018-Jan-05 09:54N 34°23' E 139°36'1 0.6
2018-Jan-05 07:26N 34°23' E 139°34'0 0.6
2018-Jan-05 06:56N 34°23' E 139°34'0 0.5
2018-Jan-05 06:17N 34°23' E 139°34'0 0.7
2018-Jan-05 05:55N 34°24' E 139°34'1 0.9
2018-Jan-05 05:00N 34°24' E 139°34'1 3.0
2018-Jan-05 04:30N 34°23' E 139°36'5 1.0
2018-Jan-04 23:20N 34°24' E 139°42'1 2.8
2018-Jan-04 22:59N 34°24' E 139°41'3 6.2
2018-Jan-04 22:27N 34°25' E 139°37'2 5.4
2018-Jan-04 22:00N 34°26' E 139°34'0 0.9
2018-Jan-04 21:30N 34°26' E 139°34'1 1.8
2018-Jan-04 20:58N 34°26' E 139°36'1 1.8
2018-Jan-04 20:29N 34°26' E 139°37'6 6.5
2018-Jan-04 19:32N 34°28' E 139°43'0 8.1
2018-Jan-04 19:31N 34°29' E 139°44'5 9.5
2018-Jan-04 18:59N 34°31' E 139°49'3 6.9
2018-Jan-04 18:30N 34°32' E 139°53'0 0.5
2018-Jan-04 17:36N 34°32' E 139°52'0 0.6
2018-Jan-04 17:30N 34°32' E 139°52'0 0.7
2018-Jan-04 17:00N 34°32' E 139°52'0 0.8
2018-Jan-04 16:31N 34°32' E 139°51'0 0.9
2018-Jan-04 16:01N 34°31' E 139°51'0 0.5
2018-Jan-04 15:28N 34°31' E 139°51'0 0.4
2018-Jan-04 15:01N 34°31' E 139°50'0 0.4
2018-Jan-04 14:14N 34°31' E 139°51'0 0.5
2018-Jan-04 13:41N 34°30' E 139°51'0 0.5
2018-Jan-04 13:31N 34°30' E 139°51'0 0.7
2018-Jan-04 12:52N 34°30' E 139°50'0 0.7
2018-Jan-04 12:30N 34°30' E 139°50'0 0.5
2018-Jan-04 12:00N 34°30' E 139°50'0 0.7
2018-Jan-04 11:30N 34°29' E 139°50'0 0.5
2018-Jan-04 11:00N 34°29' E 139°49'1 0.8
2018-Jan-04 10:21N 34°29' E 139°49'0 1.0
2018-Jan-04 09:58N 34°28' E 139°49'1 1.1
2018-Jan-04 09:15N 34°28' E 139°48'1 0.6
2018-Jan-04 07:45N 34°28' E 139°47'0 1.0
2018-Jan-04 07:15N 34°28' E 139°46'1 1.5
2018-Jan-04 06:33N 34°28' E 139°45'0 1.5
2018-Jan-04 06:29N 34°28' E 139°45'6 2.5
2018-Jan-04 04:11N 34°26' E 139°38'4 1.8
2018-Jan-04 01:50N 34°30' E 139°38'0 1.1
2018-Jan-04 01:29N 34°30' E 139°38'0 1.0
2018-Jan-04 00:59N 34°30' E 139°39'1 1.1
2018-Jan-04 00:30N 34°30' E 139°40'0 0.9
2018-Jan-04 00:00N 34°30' E 139°40'1 1.3
2018-Jan-03 23:28N 34°30' E 139°41'1 1.6
2018-Jan-03 22:57N 34°31' E 139°42'1 1.7
2018-Jan-03 22:29N 34°30' E 139°43'1 1.6
2018-Jan-03 21:57N 34°30' E 139°44'1 1.7
2018-Jan-03 21:31N 34°30' E 139°45'1 1.2
2018-Jan-03 21:01N 34°30' E 139°46'1 1.0
2018-Jan-03 20:30N 34°30' E 139°46'1 1.1
2018-Jan-03 19:54N 34°30' E 139°47'0 0.9
2018-Jan-03 19:30N 34°30' E 139°47'0 0.8
2018-Jan-03 19:01N 34°30' E 139°48'0 0.4
2018-Jan-03 18:23N 34°30' E 139°48'0 0.4
2018-Jan-03 18:00N 34°30' E 139°48'0 0.1
2018-Jan-03 17:30N 34°30' E 139°48'0 0.7
2018-Jan-03 17:01N 34°29' E 139°48'1 1.0
2018-Jan-03 16:30N 34°29' E 139°47'1 1.2
2018-Jan-03 16:00N 34°29' E 139°47'1 1.6
2018-Jan-03 15:29N 34°29' E 139°46'1 1.2
2018-Jan-03 14:38N 34°29' E 139°44'0 0.7
2018-Jan-03 14:30N 34°29' E 139°44'1 1.2
2018-Jan-03 13:53N 34°29' E 139°43'6 1.3
2018-Jan-03 09:39N 34°28' E 139°37'0 1.0
2018-Jan-03 09:30N 34°28' E 139°36'1 1.0
2018-Jan-03 08:59N 34°28' E 139°36'1 2.1
2018-Jan-03 08:30N 34°29' E 139°37'3 3.6
2018-Jan-03 07:46N 34°31' E 139°39'1 3.4
2018-Jan-03 07:26N 34°31' E 139°40'2 1.5
2018-Jan-03 06:17N 34°30' E 139°39'1 4.5
2018-Jan-03 05:59N 34°30' E 139°41'2 4.1
2018-Jan-03 05:30N 34°30' E 139°43'2 4.1
2018-Jan-03 04:56N 34°29' E 139°46'2 4.5
2018-Jan-03 04:29N 34°28' E 139°48'2 4.2
2018-Jan-03 04:00N 34°27' E 139°50'2 3.7
2018-Jan-03 03:29N 34°26' E 139°52'6 4.4
2018-Jan-03 02:01N 34°24' E 139°59'0 5.3
2018-Jan-03 02:00N 34°24' E 139°59'2 2.3
2018-Jan-03 00:57N 34°26' E 139°57'2 2.3
2018-Jan-03 00:13N 34°27' E 139°56'2 4.3
2018-Jan-02 23:49N 34°29' E 139°56'1 1.3
2018-Jan-02 22:48N 34°30' E 139°57'310.2
2018-Jan-02 22:30N 34°27' E 139°56'2 2.1
2018-Jan-02 21:39N 34°25' E 139°56'1 1.4
2018-Jan-02 21:07N 34°26' E 139°56'0 1.4
2018-Jan-02 20:48N 34°26' E 139°55'1 1.2
2018-Jan-02 20:08N 34°27' E 139°55'0 0.6
2018-Jan-02 20:00N 34°27' E 139°55'1 1.2
2018-Jan-02 19:26N 34°27' E 139°55'1 1.0
2018-Jan-02 18:54N 34°27' E 139°54'4 5.3
2018-Jan-02 18:04N 34°27' E 139°60'1 4.7
2018-Jan-02 17:49N 34°28' E 140°01'1 0.2
2018-Jan-02 10:32N 34°29' E 140°00'0 3.2
2018-Jan-02 10:27N 34°29' E 139°60'1 3.2
2018-Jan-02 10:00N 34°29' E 139°58'2 3.0
2018-Jan-02 09:30N 34°29' E 139°56'3 2.6
2018-Jan-02 08:29N 34°29' E 139°53'1 2.2
2018-Jan-02 08:00N 34°29' E 139°52'1 2.1
2018-Jan-02 07:29N 34°29' E 139°51'1 1.5
2018-Jan-02 07:01N 34°29' E 139°50'1 1.5
2018-Jan-02 06:30N 34°29' E 139°49'6 9.3
2018-Jan-02 05:49N 34°35' E 139°51'911.7
2018-Jan-02 05:02N 34°44' E 139°46'712.4
2018-Jan-02 04:30N 34°50' E 139°43'713.5
2018-Jan-02 04:01N 34°56' E 139°39'612.4
2018-Jan-02 03:31N 35°02' E 139°41'612.8
2018-Jan-02 03:01N 35°08' E 139°45'510.1
2018-Jan-02 02:30N 35°12' E 139°46'612.1
2018-Jan-02 02:00N 35°18' E 139°44'612.2
2018-Jan-02 01:30N 35°24' E 139°43'612.7
2018-Jan-02 01:00N 35°29' E 139°48'2 4.6
2018-Jan-02 00:29N 35°31' E 139°46'0 0.0
2018-Jan-01 23:59N 35°31' E 139°46'0 0.0
2018-Jan-01 23:29N 35°31' E 139°46'0 0.0
2018-Jan-01 22:59N 35°31' E 139°46'0 0.0
2018-Jan-01 22:29N 35°31' E 139°46'0 0.0
2017-Dec-31 05:08N 35°31' E 139°46'0 0.0
2017-Dec-31 04:59N 35°31' E 139°46'0 0.0
2017-Dec-31 04:29N 35°31' E 139°46'0 0.1
2017-Dec-31 04:00N 35°31' E 139°46'0 0.8
2017-Dec-31 03:30N 35°31' E 139°46'1 2.5
2017-Dec-31 03:00N 35°30' E 139°48'1 2.7
2017-Dec-31 02:30N 35°29' E 139°48'4 7.8
2017-Dec-31 02:00N 35°25' E 139°47'511.1
2017-Dec-31 01:31N 35°20' E 139°44'510.8
2017-Dec-31 01:00N 35°15' E 139°47'510.9
2017-Dec-31 00:31N 35°09' E 139°47'3 5.7
2017-Dec-31 00:00N 35°07' E 139°46'3 6.5
2017-Dec-30 23:31N 35°04' E 139°44'3 6.5
2017-Dec-30 23:01N 35°01' E 139°41'3 6.5
2017-Dec-30 22:30N 34°59' E 139°38'3 6.4
2017-Dec-30 22:00N 34°56' E 139°37'3 6.8
2017-Dec-30 21:30N 34°53' E 139°36'4 7.7
2017-Dec-30 21:00N 34°49' E 139°36'7 9.7
2017-Dec-30 20:15N 34°42' E 139°35'3 9.4
2017-Dec-30 19:54N 34°39' E 139°34'4 9.6
2017-Dec-30 19:29N 34°34' E 139°34'5 9.6
2017-Dec-30 18:58N 34°29' E 139°33'6 9.9
2017-Dec-30 18:21N 34°24' E 139°30'310.0
2017-Dec-30 18:00N 34°21' E 139°27'610.5
2017-Dec-30 17:25N 34°16' E 139°23'512.0
2017-Dec-30 16:59N 34°12' E 139°19'  

Dump ship's entire track history